Time;durP1;ratioP1;P1;durP2;ratioP2;P2;SDS_P1;SDS_P2;PMS_P1;PMS_P2;Temp;Humidity;BMP_temperature;BMP_pressure;BME280_temperature;BME280_humidity;BME280_pressure;Samples;Min_cycle;Max_cycle;Signal;HPM_P1;HPM_P2
2023/08/08 00:00:48;;;;;;;6.53;2.77;;;13.00;99.90;;;;;;5007238;28;20203;-75
2023/08/08 00:03:34;;;;;;;4.07;2.90;;;13.00;99.90;;;;;;5001690;28;20274;-73
2023/08/08 00:06:18;;;;;;;7.43;2.70;;;12.90;99.90;;;;;;5009141;28;20192;-75
2023/08/08 00:09:07;;;;;;;5.57;2.93;;;13.00;99.90;;;;;;4997085;28;20606;-76
2023/08/08 00:11:54;;;;;;;3.10;2.43;;;12.90;99.90;;;;;;5005875;28;20196;-74
2023/08/08 00:14:38;;;;;;;4.50;2.67;;;13.00;99.90;;;;;;5003445;28;20216;-77
2023/08/08 00:17:22;;;;;;;4.47;2.80;;;13.00;99.90;;;;;;5018636;28;20231;-73
2023/08/08 00:20:08;;;;;;;4.27;2.50;;;13.00;99.90;;;;;;4992815;28;20572;-75
2023/08/08 00:22:52;;;;;;;7.63;2.67;;;13.00;99.90;;;;;;5007401;28;20188;-72
2023/08/08 00:25:36;;;;;;;5.57;2.50;;;13.00;99.90;;;;;;4997714;28;20319;-74
2023/08/08 00:28:21;;;;;;;4.77;2.90;;;13.00;99.90;;;;;;5006955;28;20189;-73
2023/08/08 00:31:08;;;;;;;5.90;2.83;;;13.00;99.90;;;;;;5009518;28;20719;-74
2023/08/08 00:33:52;;;;;;;3.93;2.93;;;13.00;99.90;;;;;;5004502;28;20207;-71
2023/08/08 00:36:47;;;;;;;3.27;2.33;;;13.00;99.90;;;;;;5012144;28;20208;-73
2023/08/08 00:39:48;;;;;;;3.47;2.53;;;13.00;99.90;;;;;;5010069;28;20231;-71
2023/08/08 00:42:35;;;;;;;3.93;2.60;;;13.00;99.90;;;;;;5019084;28;20188;-76
2023/08/08 00:45:26;;;;;;;4.77;2.97;;;13.10;99.90;;;;;;5012527;28;20192;-74
2023/08/08 00:48:11;;;;;;;6.27;3.00;;;13.00;99.90;;;;;;5003127;28;20289;-74
2023/08/08 00:50:56;;;;;;;3.17;2.60;;;13.20;99.90;;;;;;5016582;28;20622;-73
2023/08/08 00:53:40;;;;;;;5.20;2.70;;;13.10;99.90;;;;;;5006890;28;20251;-74
2023/08/08 00:56:25;;;;;;;5.77;2.80;;;13.10;99.90;;;;;;5007751;28;20263;-74
2023/08/08 00:59:16;;;;;;;4.03;2.50;;;13.10;99.90;;;;;;5002418;28;20213;-74
2023/08/08 01:02:03;;;;;;;4.80;2.80;;;13.00;99.90;;;;;;5019274;28;20363;-74
2023/08/08 01:04:48;;;;;;;4.40;2.73;;;13.20;99.90;;;;;;5002296;28;20208;-72
2023/08/08 01:07:44;;;;;;;4.33;2.70;;;12.40;99.90;;;;;;5023487;28;20243;-74
2023/08/08 01:10:35;;;;;;;5.77;3.00;;;13.30;99.90;;;;;;5021909;28;20634;-75
2023/08/08 01:13:25;;;;;;;8.30;2.70;;;13.10;99.90;;;;;;5017041;28;20244;-75
2023/08/08 01:16:10;;;;;;;5.47;2.97;;;13.20;99.90;;;;;;5006100;28;20340;-73
2023/08/08 01:18:57;;;;;;;4.10;3.10;;;13.20;99.90;;;;;;5009984;28;20204;-71
2023/08/08 01:21:44;;;;;;;6.53;2.87;;;13.20;99.90;;;;;;5012028;28;20220;-74
2023/08/08 01:24:30;;;;;;;5.50;2.60;;;13.20;99.90;;;;;;5025067;28;20600;-73
2023/08/08 01:27:15;;;;;;;5.77;3.17;;;13.20;99.90;;;;;;5009170;28;20245;-71
2023/08/08 01:29:59;;;;;;;4.93;2.77;;;13.30;99.90;;;;;;5004632;28;20256;-73
2023/08/08 01:32:44;;;;;;;7.73;3.10;;;13.30;99.90;;;;;;5007122;28;20726;-75
2023/08/08 01:35:31;;;;;;;5.23;2.90;;;13.30;99.90;;;;;;5015196;28;20252;-73
2023/08/08 01:38:39;;;;;;;6.33;3.00;;;13.30;99.90;;;;;;5001019;28;20185;-73
2023/08/08 01:41:29;;;;;;;4.53;3.20;;;13.30;99.90;;;;;;5015597;28;20211;-73
2023/08/08 01:44:23;;;;;;;6.00;2.87;;;13.40;99.90;;;;;;5004466;28;20188;-75
2023/08/08 01:47:08;;;;;;;3.37;3.07;;;13.50;99.90;;;;;;5011394;28;20629;-74
2023/08/08 01:49:53;;;;;;;8.23;3.17;;;13.40;99.90;;;;;;5002787;28;20576;-75
2023/08/08 01:52:37;;;;;;;4.67;3.03;;;13.50;99.90;;;;;;5000132;28;20192;-73
2023/08/08 01:55:22;;;;;;;5.33;3.03;;;13.50;99.90;;;;;;5016694;28;20262;-71
2023/08/08 01:58:07;;;;;;;5.33;3.37;;;13.50;99.90;;;;;;4997546;28;20244;-74
2023/08/08 02:00:51;;;;;;;5.50;3.13;;;13.60;99.90;;;;;;5001805;28;20200;-72
2023/08/08 02:03:42;;;;;;;5.43;3.40;;;13.60;99.90;;;;;;5005323;28;20231;-75
2023/08/08 02:06:26;;;;;;;6.03;3.23;;;13.60;99.90;;;;;;5019337;28;20764;-71
2023/08/08 02:09:14;;;;;;;5.83;3.40;;;13.60;99.90;;;;;;5017266;28;20219;-74
2023/08/08 02:11:58;;;;;;;4.13;2.83;;;13.70;99.90;;;;;;5008349;28;20267;-74
2023/08/08 02:14:46;;;;;;;3.80;2.97;;;13.80;99.90;;;;;;5000308;28;20231;-71
2023/08/08 02:17:33;;;;;;;5.73;2.97;;;13.80;99.90;;;;;;5005325;28;20530;-71
2023/08/08 02:20:18;;;;;;;4.87;3.40;;;13.80;99.90;;;;;;5009409;28;20212;-75
2023/08/08 02:23:08;;;;;;;11.27;3.30;;;13.80;99.90;;;;;;5005351;28;20559;-74
2023/08/08 02:25:53;;;;;;;4.33;3.50;;;13.80;99.90;;;;;;5002569;28;20198;-72
2023/08/08 02:28:37;;;;;;;4.07;3.47;;;13.80;99.90;;;;;;5017030;23;20228;-73
2023/08/08 02:31:22;;;;;;;5.23;3.33;;;13.80;99.90;;;;;;5004269;28;20243;-72
2023/08/08 02:34:07;;;;;;;7.23;3.73;;;13.80;99.90;;;;;;5007011;28;20268;-75
2023/08/08 02:36:51;;;;;;;4.90;3.07;;;13.80;99.90;;;;;;5018072;28;20207;-74
2023/08/08 02:39:36;;;;;;;6.60;3.40;;;13.80;99.90;;;;;;5009638;28;20227;-72
2023/08/08 02:42:21;;;;;;;7.87;3.50;;;13.80;99.90;;;;;;4996892;28;20179;-72
2023/08/08 02:45:06;;;;;;;6.80;3.60;;;13.80;99.90;;;;;;5004477;28;20196;-74
2023/08/08 02:47:50;;;;;;;4.53;3.10;;;13.80;99.90;;;;;;5006456;28;20251;-72
2023/08/08 02:50:35;;;;;;;3.43;3.10;;;13.80;99.90;;;;;;5003137;28;20659;-73
2023/08/08 02:53:19;;;;;;;8.03;3.37;;;13.80;99.90;;;;;;5005118;28;20205;-75
2023/08/08 02:56:04;;;;;;;6.70;3.30;;;13.80;99.90;;;;;;5002232;28;20215;-72
2023/08/08 02:58:49;;;;;;;8.23;3.30;;;13.70;99.90;;;;;;5005630;28;20271;-72
2023/08/08 03:01:37;;;;;;;9.27;3.20;;;13.70;99.90;;;;;;5003844;28;20179;-72
2023/08/08 03:04:21;;;;;;;5.73;3.27;;;13.80;99.90;;;;;;4997922;28;20180;-77
2023/08/08 03:07:06;;;;;;;6.63;3.47;;;13.80;99.90;;;;;;5019665;28;20180;-72
2023/08/08 03:09:51;;;;;;;3.37;3.03;;;13.80;99.90;;;;;;5000628;28;20220;-71
2023/08/08 03:12:37;;;;;;;5.73;2.80;;;13.80;99.90;;;;;;5006142;28;20192;-74
2023/08/08 03:15:33;;;;;;;5.40;3.30;;;13.80;99.90;;;;;;5002118;28;20284;-71
2023/08/08 03:21:13;;;;;;;4.87;3.30;;;13.80;99.90;;;;;;4966982;28;20204;-73
2023/08/08 03:23:57;;;;;;;5.37;3.43;;;13.80;99.90;;;;;;4968745;28;20209;-74
2023/08/08 03:26:42;;;;;;;7.40;4.07;;;13.80;99.90;;;;;;4966983;28;20618;-75
2023/08/08 03:29:28;;;;;;;4.40;3.20;;;13.80;99.90;;;;;;4962746;28;20222;-73
2023/08/08 03:32:16;;;;;;;5.93;3.60;;;13.80;99.90;;;;;;4957874;28;20183;-74
2023/08/08 03:35:10;;;;;;;8.13;3.33;;;13.80;99.90;;;;;;4962478;28;20214;-71
2023/08/08 03:37:54;;;;;;;7.80;3.70;;;13.80;99.90;;;;;;4961075;28;20253;-73
2023/08/08 03:40:45;;;;;;;6.37;3.70;;;13.80;99.90;;;;;;4957792;28;20209;-73
2023/08/08 03:43:37;;;;;;;8.13;3.40;;;13.80;99.90;;;;;;4951300;28;20198;-75
2023/08/08 03:46:24;;;;;;;3.73;3.27;;;13.80;99.90;;;;;;4942435;28;20187;-76
2023/08/08 03:49:09;;;;;;;11.37;3.77;;;13.80;99.90;;;;;;4953109;28;20222;-75
2023/08/08 03:51:54;;;;;;;6.77;3.67;;;13.80;99.90;;;;;;4957542;28;20194;-72
2023/08/08 03:54:38;;;;;;;4.80;3.20;;;13.90;99.90;;;;;;4958342;28;20826;-74
2023/08/08 03:57:25;;;;;;;9.80;3.87;;;13.90;99.90;;;;;;4961416;28;20230;-76
2023/08/08 04:00:11;;;;;;;9.10;3.70;;;13.80;99.90;;;;;;4963381;28;20209;-73
2023/08/08 04:02:55;;;;;;;8.83;4.03;;;13.80;99.90;;;;;;4966086;28;20246;-72
2023/08/08 04:05:46;;;;;;;7.33;4.03;;;13.90;99.90;;;;;;4957944;28;20743;-72
2023/08/08 04:08:30;;;;;;;6.73;4.33;;;13.80;99.90;;;;;;4967438;28;20574;-74
2023/08/08 04:11:15;;;;;;;8.03;4.07;;;13.80;99.90;;;;;;4959716;28;20285;-76
2023/08/08 04:14:03;;;;;;;5.40;3.60;;;13.80;99.90;;;;;;4963704;28;20579;-74
2023/08/08 04:16:50;;;;;;;5.30;3.93;;;13.80;99.90;;;;;;4953374;28;20234;-71
2023/08/08 04:19:44;;;;;;;11.50;4.13;;;13.90;99.90;;;;;;4965438;28;20297;-75
2023/08/08 04:22:31;;;;;;;7.10;4.10;;;13.80;99.90;;;;;;4945841;29;20186;-76
2023/08/08 04:25:21;;;;;;;12.27;4.23;;;13.80;99.90;;;;;;4964470;28;20221;-72
2023/08/08 04:28:05;;;;;;;8.97;3.97;;;13.80;99.90;;;;;;4952225;29;20206;-73
2023/08/08 04:30:50;;;;;;;7.83;4.13;;;13.80;99.90;;;;;;4964363;28;20270;-72
2023/08/08 04:33:34;;;;;;;7.40;4.03;;;13.90;99.90;;;;;;4963989;28;20217;-74
2023/08/08 04:36:19;;;;;;;8.47;4.63;;;13.80;99.90;;;;;;4965691;28;20206;-74
2023/08/08 04:39:03;;;;;;;7.53;3.63;;;13.80;99.90;;;;;;4954286;29;20357;-74
2023/08/08 04:41:47;;;;;;;8.67;3.80;;;13.80;99.90;;;;;;4953677;29;20709;-74
2023/08/08 04:44:32;;;;;;;8.33;4.00;;;13.90;99.90;;;;;;4959010;28;20243;-74
2023/08/08 04:47:16;;;;;;;8.80;4.77;;;13.80;99.90;;;;;;4953623;29;20190;-74
2023/08/08 04:50:00;;;;;;;9.80;4.60;;;13.80;99.90;;;;;;4949190;28;20213;-71
2023/08/08 04:52:44;;;;;;;5.87;4.20;;;13.90;99.90;;;;;;4954047;28;20587;-73
2023/08/08 04:55:28;;;;;;;9.13;4.20;;;13.90;99.90;;;;;;4968645;28;20222;-71
2023/08/08 04:58:12;;;;;;;6.27;3.90;;;13.90;99.90;;;;;;4966664;28;20230;-72
2023/08/08 05:00:57;;;;;;;7.80;4.47;;;13.90;99.90;;;;;;4951783;28;20693;-74
2023/08/08 05:03:41;;;;;;;7.60;3.97;;;13.90;99.90;;;;;;4961728;28;20189;-72
2023/08/08 05:06:25;;;;;;;10.27;4.23;;;13.90;99.90;;;;;;4949385;29;20198;-73
2023/08/08 05:09:09;;;;;;;7.97;4.20;;;14.00;99.90;;;;;;4950134;28;20701;-72
2023/08/08 05:11:53;;;;;;;10.23;4.37;;;14.00;99.90;;;;;;4963361;28;20273;-75
2023/08/08 05:14:37;;;;;;;4.97;3.93;;;14.00;99.90;;;;;;4966682;28;20206;-72
2023/08/08 05:17:22;;;;;;;9.67;4.47;;;14.00;99.90;;;;;;4949683;28;20240;-71
2023/08/08 05:20:08;;;;;;;6.33;4.63;;;14.00;99.90;;;;;;4961089;28;20297;-73
2023/08/08 05:22:52;;;;;;;11.70;4.67;;;14.10;99.90;;;;;;4963467;28;20274;-73
2023/08/08 05:25:36;;;;;;;10.20;4.03;;;14.10;99.90;;;;;;4949577;28;20194;-74
2023/08/08 05:28:20;;;;;;;8.90;4.30;;;14.00;99.90;;;;;;4951811;29;20191;-71
2023/08/08 05:31:04;;;;;;;7.17;4.17;;;14.20;99.90;;;;;;4964220;28;20209;-73
2023/08/08 05:33:49;;;;;;;9.33;4.33;;;14.10;99.90;;;;;;4963077;28;20198;-73
2023/08/08 05:36:33;;;;;;;8.63;4.13;;;14.10;99.90;;;;;;4966330;28;20217;-72
2023/08/08 05:39:17;;;;;;;6.90;3.97;;;14.40;99.90;;;;;;4966622;28;20229;-73
2023/08/08 05:42:01;;;;;;;8.63;3.90;;;14.20;99.90;;;;;;4959291;28;20282;-72
2023/08/08 05:44:45;;;;;;;8.13;3.67;;;14.30;99.90;;;;;;4960602;28;20193;-73
2023/08/08 05:47:29;;;;;;;7.27;3.60;;;14.30;99.90;;;;;;4949980;29;20191;-72
2023/08/08 05:50:13;;;;;;;12.80;4.03;;;14.30;99.90;;;;;;4964323;28;20222;-74
2023/08/08 05:52:57;;;;;;;8.67;3.40;;;14.30;99.90;;;;;;4960383;28;20203;-74
2023/08/08 05:55:42;;;;;;;5.93;3.53;;;14.40;99.90;;;;;;4960925;28;20214;-74
2023/08/08 05:58:26;;;;;;;11.87;4.10;;;14.40;99.90;;;;;;4961698;28;20197;-74
2023/08/08 06:01:11;;;;;;;8.33;3.47;;;14.60;99.90;;;;;;4956212;28;20282;-73
2023/08/08 06:03:55;;;;;;;9.73;3.13;;;14.60;99.90;;;;;;4956003;28;20186;-73
2023/08/08 06:06:39;;;;;;;4.33;2.57;;;14.70;99.90;;;;;;4964002;28;20210;-71
2023/08/08 06:09:24;;;;;;;6.97;3.03;;;14.80;99.90;;;;;;4959796;28;20273;-72
2023/08/08 06:12:09;;;;;;;8.80;3.20;;;14.90;99.90;;;;;;4962042;28;20234;-73
2023/08/08 06:14:53;;;;;;;9.50;3.00;;;15.00;99.90;;;;;;4968769;28;20258;-72
2023/08/08 06:17:39;;;;;;;10.13;2.50;;;15.10;99.90;;;;;;4966138;28;20230;-71
2023/08/08 06:20:23;;;;;;;6.77;2.50;;;15.10;99.90;;;;;;4950468;28;20241;-71
2023/08/08 06:23:07;;;;;;;6.60;2.37;;;15.10;99.90;;;;;;4963452;28;20217;-73
2023/08/08 06:25:51;;;;;;;4.73;2.30;;;15.20;99.90;;;;;;4951689;28;20189;-72
2023/08/08 06:28:35;;;;;;;5.73;2.47;;;15.20;99.90;;;;;;4964676;28;20234;-72
2023/08/08 06:31:19;;;;;;;5.13;2.47;;;15.20;99.90;;;;;;4959957;28;20193;-72
2023/08/08 06:34:03;;;;;;;7.07;2.33;;;15.20;99.90;;;;;;4945265;29;20745;-73
2023/08/08 06:36:48;;;;;;;4.83;1.90;;;15.30;99.90;;;;;;4952775;28;20209;-72
2023/08/08 06:39:32;;;;;;;8.50;2.30;;;15.30;99.90;;;;;;4966789;28;20240;-71
2023/08/08 06:42:17;;;;;;;7.30;2.40;;;15.30;99.90;;;;;;4946178;28;20237;-72
2023/08/08 06:45:01;;;;;;;7.07;2.20;;;15.40;99.90;;;;;;4949307;29;20567;-71
2023/08/08 06:47:45;;;;;;;5.93;2.23;;;15.50;99.90;;;;;;4946576;28;20254;-71
2023/08/08 06:50:29;;;;;;;3.27;1.80;;;15.50;99.90;;;;;;4964891;28;20733;-71
2023/08/08 06:53:14;;;;;;;2.63;1.93;;;15.50;99.90;;;;;;4964907;28;20213;-71
2023/08/08 06:55:58;;;;;;;4.13;2.00;;;15.60;99.90;;;;;;4951133;28;20230;-71
2023/08/08 06:58:43;;;;;;;5.53;2.00;;;15.60;99.90;;;;;;4958903;28;20223;-71
2023/08/08 07:01:27;;;;;;;5.17;1.70;;;15.70;99.90;;;;;;4947063;28;20242;-72
2023/08/08 07:04:11;;;;;;;6.47;1.80;;;15.80;99.90;;;;;;4950000;29;20327;-71
2023/08/08 07:06:55;;;;;;;5.63;1.70;;;15.80;99.90;;;;;;4954348;28;20205;-71
2023/08/08 07:09:39;;;;;;;6.33;1.67;;;15.90;99.90;;;;;;4947185;28;20215;-71
2023/08/08 07:12:23;;;;;;;3.77;1.70;;;15.90;99.90;;;;;;4955937;28;20209;-72
2023/08/08 07:15:09;;;;;;;5.00;1.40;;;16.00;99.90;;;;;;4950922;28;20269;-71
2023/08/08 07:17:53;;;;;;;6.23;1.70;;;16.10;99.90;;;;;;4942359;29;20197;-72
2023/08/08 07:20:39;;;;;;;5.70;1.70;;;16.10;99.90;;;;;;4954882;28;20201;-71
2023/08/08 07:23:23;;;;;;;6.83;1.73;;;16.10;99.90;;;;;;4961322;28;20605;-71
2023/08/08 07:26:07;;;;;;;7.13;1.60;;;16.20;99.90;;;;;;4949436;28;20202;-72
2023/08/08 07:28:51;;;;;;;6.30;1.73;;;16.30;99.90;;;;;;4947109;28;20226;-71
2023/08/08 07:31:35;;;;;;;8.77;1.80;;;16.30;99.90;;;;;;4972054;28;20190;-70
2023/08/08 07:34:20;;;;;;;5.20;1.40;;;16.40;99.90;;;;;;4946537;29;20766;-71
2023/08/08 07:37:05;;;;;;;6.00;1.60;;;16.40;99.90;;;;;;4968743;28;20225;-71
2023/08/08 07:39:52;;;;;;;3.57;1.23;;;16.40;99.90;;;;;;4944757;28;20211;-71
2023/08/08 07:42:37;;;;;;;5.83;1.80;;;16.40;99.90;;;;;;4947477;28;20265;-71
2023/08/08 07:45:21;;;;;;;5.77;1.77;;;16.50;99.90;;;;;;4947576;29;20317;-72
2023/08/08 07:48:05;;;;;;;6.07;1.40;;;16.50;99.90;;;;;;4954401;28;20205;-71
2023/08/08 07:50:49;;;;;;;2.20;1.10;;;16.50;99.90;;;;;;4948265;29;20202;-71
2023/08/08 07:53:33;;;;;;;3.73;1.30;;;16.50;99.90;;;;;;4952193;28;20190;-71
2023/08/08 07:56:17;;;;;;;4.03;1.20;;;16.60;99.90;;;;;;4946264;28;20254;-71
2023/08/08 07:59:02;;;;;;;7.43;1.90;;;16.60;99.90;;;;;;4959902;28;20346;-72
2023/08/08 08:01:46;;;;;;;5.90;1.40;;;16.60;99.90;;;;;;4966803;28;20221;-70
2023/08/08 08:04:31;;;;;;;3.33;1.30;;;16.60;99.90;;;;;;4946531;28;20678;-70
2023/08/08 08:07:15;;;;;;;5.23;1.60;;;16.60;99.90;;;;;;4953831;28;20224;-70
2023/08/08 08:09:59;;;;;;;3.10;1.27;;;16.60;99.90;;;;;;4952028;28;20274;-71
2023/08/08 08:12:43;;;;;;;6.38;1.33;;;16.60;99.90;;;;;;4962512;28;20190;-73
2023/08/08 08:15:28;;;;;;;5.90;1.10;;;16.60;99.90;;;;;;4949879;29;20281;-71
2023/08/08 08:18:13;;;;;;;5.30;1.40;;;16.70;99.90;;;;;;4966135;28;20226;-72
2023/08/08 08:20:57;;;;;;;8.77;1.60;;;16.70;99.90;;;;;;4970784;28;20194;-71
2023/08/08 08:23:41;;;;;;;13.00;1.58;;;16.80;99.90;;;;;;4960857;28;20187;-70
2023/08/08 08:26:26;;;;;;;4.80;1.00;;;16.90;99.90;;;;;;4950571;29;20189;-70
2023/08/08 08:29:10;;;;;;;3.78;1.33;;;16.90;99.90;;;;;;4964376;28;20213;-71
2023/08/08 08:31:54;;;;;;;2.70;1.10;;;16.90;99.90;;;;;;4970302;28;20190;-71
2023/08/08 08:34:38;;;;;;;5.00;1.27;;;16.90;99.90;;;;;;4945041;28;20214;-71
2023/08/08 08:37:22;;;;;;;2.17;0.93;;;16.90;99.90;;;;;;4956977;28;20190;-71
2023/08/08 08:40:07;;;;;;;2.60;1.10;;;16.90;99.90;;;;;;4956369;28;20268;-71
2023/08/08 08:42:52;;;;;;;2.53;0.90;;;17.00;99.90;;;;;;4954610;28;20189;-72
2023/08/08 08:45:40;;;;;;;3.17;0.87;;;17.00;99.90;;;;;;4965750;28;20254;-73
2023/08/08 08:48:25;;;;;;;2.60;0.90;;;17.10;99.90;;;;;;4946022;28;20201;-71
2023/08/08 08:51:10;;;;;;;8.82;1.17;;;17.10;99.90;;;;;;4962473;28;20265;-72
2023/08/08 08:53:56;;;;;;;2.00;1.13;;;17.20;99.90;;;;;;4943762;29;20194;-71
2023/08/08 08:56:41;;;;;;;3.08;1.10;;;17.20;99.90;;;;;;4957977;28;20221;-71
2023/08/08 08:59:26;;;;;;;3.03;1.10;;;17.30;99.90;;;;;;4963921;28;20609;-72
2023/08/08 09:02:10;;;;;;;7.57;0.90;;;17.30;99.90;;;;;;4949793;28;20190;-73
2023/08/08 09:04:56;;;;;;;2.37;0.80;;;17.30;99.90;;;;;;4947753;29;20239;-71
2023/08/08 09:07:40;;;;;;;4.10;0.98;;;17.40;99.90;;;;;;4954624;28;20693;-72
2023/08/08 09:10:27;;;;;;;2.53;0.60;;;17.40;99.90;;;;;;4953925;28;20220;-71
2023/08/08 09:13:11;;;;;;;2.90;1.20;;;17.40;99.90;;;;;;4961516;28;20250;-72
2023/08/08 09:15:55;;;;;;;3.70;0.80;;;17.50;99.90;;;;;;4950275;29;20229;-71
2023/08/08 09:18:42;;;;;;;12.00;5.05;;;17.50;99.90;;;;;;4953577;29;20642;-72
2023/08/08 09:21:27;;;;;;;3.90;1.55;;;17.60;99.90;;;;;;4968999;28;20194;-71
2023/08/08 09:24:12;;;;;;;2.63;0.70;;;17.70;99.90;;;;;;4961976;28;20283;-71
2023/08/08 09:26:56;;;;;;;2.33;1.00;;;17.70;99.90;;;;;;4956286;28;20563;-70
2023/08/08 09:29:41;;;;;;;2.38;1.00;;;17.80;99.90;;;;;;4949488;28;20266;-71
2023/08/08 09:32:32;;;;;;;1.60;0.70;;;17.80;99.90;;;;;;4967555;28;20573;-71
2023/08/08 09:35:16;;;;;;;4.82;0.98;;;17.80;99.90;;;;;;4949532;29;20210;-72
2023/08/08 09:38:00;;;;;;;2.17;0.75;;;17.80;99.90;;;;;;4952496;28;20181;-71
2023/08/08 09:40:44;;;;;;;1.30;0.65;;;17.80;99.90;;;;;;4965961;28;20772;-72
2023/08/08 09:43:29;;;;;;;4.25;0.90;;;17.90;99.90;;;;;;4969482;28;20198;-72
2023/08/08 09:46:15;;;;;;;3.90;0.90;;;17.90;99.90;;;;;;4950173;29;20243;-72
2023/08/08 09:48:59;;;;;;;1.67;0.75;;;18.00;99.90;;;;;;4945443;28;20218;-72
2023/08/08 09:51:44;;;;;;;3.55;0.75;;;18.00;99.90;;;;;;4965432;28;20258;-71
2023/08/08 09:54:30;;;;;;;1.40;0.60;;;18.10;99.90;;;;;;4949305;28;20198;-71
2023/08/08 09:57:14;;;;;;;2.67;0.60;;;17.50;99.90;;;;;;4948480;29;20246;-71
2023/08/08 09:59:58;;;;;;;2.70;0.82;;;18.10;99.90;;;;;;4957215;28;20289;-72
2023/08/08 10:02:45;;;;;;;1.60;0.70;;;18.10;99.90;;;;;;4962964;28;20264;-71
2023/08/08 10:05:30;;;;;;;5.97;0.95;;;18.20;99.90;;;;;;4953529;28;20193;-72
2023/08/08 10:08:15;;;;;;;1.95;0.70;;;18.30;99.90;;;;;;4955637;28;20239;-72
2023/08/08 10:11:01;;;;;;;1.55;0.70;;;18.40;99.90;;;;;;4950288;28;20205;-72
2023/08/08 10:13:50;;;;;;;2.15;0.90;;;18.50;99.90;;;;;;4947525;29;20213;-73
2023/08/08 10:16:37;;;;;;;3.30;0.70;;;18.50;99.90;;;;;;4959067;28;20334;-72
2023/08/08 10:19:23;;;;;;;2.47;0.88;;;18.50;99.90;;;;;;4962585;28;20225;-73
2023/08/08 10:22:09;;;;;;;4.28;0.85;;;18.50;99.90;;;;;;4945062;29;20186;-73
2023/08/08 10:24:55;;;;;;;2.28;0.70;;;18.50;99.90;;;;;;4944793;28;20217;-73
2023/08/08 10:27:40;;;;;;;1.83;0.73;;;18.50;99.90;;;;;;4962635;28;20190;-73
2023/08/08 10:30:24;;;;;;;1.23;0.85;;;18.50;99.90;;;;;;4957434;28;20253;-72
2023/08/08 10:33:17;;;;;;;3.20;0.68;;;18.50;99.90;;;;;;4946655;29;20190;-72
2023/08/08 10:36:08;;;;;;;2.05;0.60;;;18.50;99.90;;;;;;4958850;28;20255;-72
2023/08/08 10:38:54;;;;;;;4.65;0.80;;;18.40;99.90;;;;;;4951981;28;20214;-72
2023/08/08 10:41:48;;;;;;;3.05;0.90;;;18.40;99.90;;;;;;4969893;28;20246;-73
2023/08/08 10:44:42;;;;;;;2.85;0.70;;;18.40;99.90;;;;;;4957866;28;20253;-72
2023/08/08 10:47:31;;;;;;;1.52;0.70;;;18.40;99.90;;;;;;4961840;28;20198;-72
2023/08/08 10:50:22;;;;;;;1.52;0.82;;;18.50;99.90;;;;;;4953543;28;20225;-72
2023/08/08 10:53:09;;;;;;;2.78;0.60;;;18.50;99.90;;;;;;4964562;28;20261;-72
2023/08/08 10:56:02;;;;;;;5.97;0.50;;;18.60;99.90;;;;;;4951654;28;20261;-72
2023/08/08 10:58:49;;;;;;;2.33;0.57;;;18.60;99.90;;;;;;4957981;28;20229;-72
2023/08/08 11:01:33;;;;;;;2.95;0.60;;;18.50;99.90;;;;;;4964559;28;20265;-72
2023/08/08 11:04:26;;;;;;;3.13;0.70;;;18.50;99.90;;;;;;4960176;28;20190;-72
2023/08/08 11:07:11;;;;;;;1.67;0.50;;;18.40;99.90;;;;;;4962182;28;20271;-73
2023/08/08 11:09:57;;;;;;;5.97;0.90;;;18.30;99.90;;;;;;4965436;28;20297;-73
2023/08/08 11:12:41;;;;;;;2.85;0.73;;;18.30;99.90;;;;;;4958710;28;20617;-73
2023/08/08 11:15:27;;;;;;;2.70;0.60;;;18.20;99.90;;;;;;4957228;28;20261;-74
2023/08/08 11:18:12;;;;;;;3.78;0.70;;;18.20;99.90;;;;;;4946386;28;20194;-73
2023/08/08 11:20:56;;;;;;;2.65;0.82;;;18.20;99.90;;;;;;4962509;28;20198;-74
2023/08/08 11:23:45;;;;;;;2.70;0.63;;;18.10;99.90;;;;;;4957724;28;20261;-73
2023/08/08 11:26:31;;;;;;;3.78;0.80;;;18.10;99.90;;;;;;4951921;28;20190;-74
2023/08/08 11:29:16;;;;;;;6.32;1.10;;;18.00;99.90;;;;;;4951619;28;20213;-73
2023/08/08 11:32:01;;;;;;;2.88;0.73;;;17.80;99.90;;;;;;4959287;28;20333;-74
2023/08/08 11:34:47;;;;;;;1.10;0.80;;;17.60;99.90;;;;;;4958690;28;20198;-74
2023/08/08 11:37:31;;;;;;;2.25;0.82;;;17.40;99.90;;;;;;4960126;28;20254;-73
2023/08/08 11:40:16;;;;;;;4.22;0.90;;;17.30;99.90;;;;;;4961281;28;20218;-72
2023/08/08 11:43:00;;;;;;;2.40;0.95;;;17.30;99.90;;;;;;4954329;28;20206;-73
2023/08/08 11:45:45;;;;;;;6.25;1.30;;;17.30;99.90;;;;;;4947841;29;20659;-73
2023/08/08 11:48:32;;;;;;;1.90;0.77;;;17.40;99.90;;;;;;4956204;28;20249;-74
2023/08/08 11:51:17;;;;;;;2.53;0.93;;;17.40;99.90;;;;;;4961199;28;20266;-72
2023/08/08 11:54:03;;;;;;;1.55;0.60;;;17.50;99.90;;;;;;4962266;28;20195;-74
2023/08/08 11:56:48;;;;;;;2.97;0.85;;;17.50;99.90;;;;;;4949116;28;20250;-74
2023/08/08 11:59:32;;;;;;;3.35;0.70;;;17.60;99.90;;;;;;4960386;28;20303;-73
2023/08/08 12:02:17;;;;;;;1.45;0.50;;;17.70;99.90;;;;;;4949483;29;20186;-74
2023/08/08 12:05:09;;;;;;;1.33;0.60;;;17.70;99.90;;;;;;4948281;28;20620;-73
2023/08/08 12:07:53;;;;;;;6.13;0.80;;;17.80;99.90;;;;;;4961424;28;20206;-75
2023/08/08 12:10:38;;;;;;;5.00;0.70;;;17.90;99.90;;;;;;4959662;28;20226;-73
2023/08/08 12:13:26;;;;;;;2.47;0.88;;;18.10;99.90;;;;;;4959239;28;20194;-73
2023/08/08 12:16:12;;;;;;;4.40;0.75;;;18.10;99.90;;;;;;4960776;28;20225;-73
2023/08/08 12:18:57;;;;;;;1.55;0.80;;;18.20;99.90;;;;;;4960380;28;20285;-73
2023/08/08 12:21:41;;;;;;;2.95;0.70;;;18.30;99.90;;;;;;4953639;28;20720;-73
2023/08/08 12:24:25;;;;;;;2.50;1.95;;;18.40;99.90;;;;;;4967510;28;20189;-73
2023/08/08 12:27:09;;;;;;;1.38;0.75;;;18.30;99.90;;;;;;4954321;29;20218;-74
2023/08/08 12:29:53;;;;;;;3.03;1.10;;;18.30;99.90;;;;;;4962910;28;20223;-73
2023/08/08 12:32:38;;;;;;;3.05;0.80;;;18.30;99.90;;;;;;4964353;28;20215;-73
2023/08/08 12:35:22;;;;;;;2.58;1.08;;;18.30;99.90;;;;;;4951546;28;20297;-73
2023/08/08 12:38:06;;;;;;;3.05;0.88;;;18.40;99.90;;;;;;4966059;28;20202;-73
2023/08/08 12:40:50;;;;;;;2.38;0.70;;;18.40;99.90;;;;;;4964108;28;20245;-73
2023/08/08 12:43:35;;;;;;;2.42;0.98;;;18.20;99.90;;;;;;4948929;29;20190;-73
2023/08/08 12:46:19;;;;;;;2.10;0.60;;;18.30;99.90;;;;;;4944819;29;20238;-73
2023/08/08 12:49:03;;;;;;;1.40;0.70;;;18.20;99.90;;;;;;4954176;29;20233;-74
2023/08/08 12:51:47;;;;;;;4.07;0.85;;;18.30;99.90;;;;;;4953383;29;20209;-74
2023/08/08 12:54:31;;;;;;;2.25;0.77;;;18.30;99.90;;;;;;4950223;28;20635;-73
2023/08/08 12:57:15;;;;;;;3.90;1.05;;;18.40;99.90;;;;;;4948191;29;20268;-73
2023/08/08 12:59:59;;;;;;;3.47;0.70;;;18.40;99.90;;;;;;4960488;28;20362;-73
2023/08/08 13:02:44;;;;;;;1.73;0.70;;;18.40;99.90;;;;;;4945094;28;20198;-74
2023/08/08 13:05:28;;;;;;;1.55;0.68;;;18.30;99.90;;;;;;4963670;28;20250;-73
2023/08/08 13:08:13;;;;;;;3.92;0.98;;;18.20;99.90;;;;;;4949595;29;20206;-73
2023/08/08 13:10:58;;;;;;;1.73;0.73;;;18.30;99.90;;;;;;4954458;28;20580;-72
2023/08/08 13:13:42;;;;;;;2.00;0.60;;;18.10;99.90;;;;;;4959489;28;20193;-72
2023/08/08 13:16:26;;;;;;;2.58;0.88;;;18.20;99.90;;;;;;4952041;29;20686;-72
2023/08/08 13:19:11;;;;;;;3.53;0.80;;;18.30;99.90;;;;;;4965046;28;20701;-71
2023/08/08 13:21:56;;;;;;;1.60;0.68;;;18.30;99.90;;;;;;4966882;28;20193;-72
2023/08/08 13:24:40;;;;;;;3.58;1.05;;;18.40;99.90;;;;;;4953197;28;20263;-71
2023/08/08 13:27:24;;;;;;;3.47;1.10;;;18.40;99.90;;;;;;4952416;28;20198;-71
2023/08/08 13:30:08;;;;;;;2.00;0.68;;;18.40;99.90;;;;;;4962850;28;20218;-71
2023/08/08 13:32:54;;;;;;;1.20;0.80;;;18.30;99.90;;;;;;4949707;28;20201;-71
2023/08/08 13:35:38;;;;;;;1.98;0.90;;;18.20;99.90;;;;;;4959962;28;20542;-72
2023/08/08 13:38:23;;;;;;;2.95;0.90;;;18.20;99.90;;;;;;4951275;28;20202;-71
2023/08/08 13:41:07;;;;;;;1.52;0.80;;;18.20;99.90;;;;;;4949458;28;20194;-71
2023/08/08 13:43:51;;;;;;;2.42;0.82;;;17.60;99.90;;;;;;4955246;28;20214;-71
2023/08/08 13:46:35;;;;;;;1.75;0.82;;;18.20;99.90;;;;;;4961273;28;20205;-71
2023/08/08 13:49:20;;;;;;;1.40;0.80;;;18.30;99.90;;;;;;4964874;28;20222;-70
2023/08/08 13:52:04;;;;;;;2.05;0.93;;;18.40;99.90;;;;;;4944848;28;20198;-72
2023/08/08 13:54:48;;;;;;;2.60;0.65;;;18.50;99.90;;;;;;4945785;28;20221;-71
2023/08/08 13:57:32;;;;;;;3.70;0.90;;;18.60;99.90;;;;;;4948916;29;20262;-71
2023/08/08 14:00:17;;;;;;;1.95;0.82;;;18.70;99.90;;;;;;4962130;28;20282;-72
2023/08/08 14:03:03;;;;;;;4.53;0.90;;;;;;;;;;4947761;28;20226;-72
2023/08/08 14:05:47;;;;;;;2.75;0.70;;;18.80;99.90;;;;;;4959403;28;20567;-72
2023/08/08 14:08:32;;;;;;;2.58;1.02;;;18.80;99.90;;;;;;4947127;29;20187;-71
2023/08/08 14:11:16;;;;;;;3.40;0.93;;;18.90;99.90;;;;;;4963155;28;20213;-72
2023/08/08 14:14:00;;;;;;;3.90;0.80;;;18.90;99.90;;;;;;4948150;28;20682;-72
2023/08/08 14:16:44;;;;;;;4.70;0.90;;;19.00;99.90;;;;;;4961604;28;20239;-72
2023/08/08 14:19:28;;;;;;;3.63;1.02;;;18.90;99.90;;;;;;4952538;28;20225;-71
2023/08/08 14:22:12;;;;;;;2.15;0.85;;;19.10;99.90;;;;;;4948047;29;20263;-72